Time;durP1;ratioP1;P1;durP2;ratioP2;P2;SDS_P1;SDS_P2;PMS_P1;PMS_P2;Temp;Humidity;BMP_temperature;BMP_pressure;BME280_temperature;BME280_humidity;BME280_pressure;Samples;Min_cycle;Max_cycle;Signal;HPM_P1;HPM_P2
2022/08/04 00:00:21;;;;;;;;;;;;;;;24.61;47.08;100903.50;7405489;19;1766;-38
2022/08/04 00:03:03;;;;;;;;;;;;;;;24.70;46.91;100917.84;7403826;19;1751;-39
2022/08/04 00:05:37;;;;;;;;;;;;;;;24.42;47.29;100904.63;7403258;19;1874;-39
2022/08/04 00:08:08;;;;;;;;;;;;;;;24.34;46.99;100906.50;7404177;19;1762;-39
2022/08/04 00:10:40;;;;;;;;;;;;;;;24.52;46.99;100909.91;7404692;19;1746;-39
2022/08/04 00:13:27;;;;;;;;;;;;;;;24.75;46.63;100920.91;7403438;19;1794;-39
2022/08/04 00:15:59;;;;;;;;;;;;;;;24.59;46.97;100918.19;7404065;19;1995;-39
2022/08/04 00:18:36;;;;;;;;;;;;;;;24.55;47.17;100924.94;7402538;19;2070;-38
2022/08/04 00:21:10;;;;;;;;;;;;;;;24.70;46.96;100906.19;7404311;19;1964;-39
2022/08/04 00:23:40;;;;;;;;;;;;;;;24.65;46.94;100920.22;7402913;19;1858;-38
2022/08/04 00:26:10;;;;;;;;;;;;;;;24.61;47.13;100935.94;7404375;19;1876;-38
2022/08/04 00:28:42;;;;;;;;;;;;;;;24.56;47.11;100927.47;7405317;19;1865;-38
2022/08/04 00:31:11;;;;;;;;;;;;;;;24.44;47.28;100931.50;7404899;19;1834;-38
2022/08/04 00:33:47;;;;;;;;;;;;;;;24.34;47.49;100930.81;7402404;19;1968;-38
2022/08/04 00:36:17;;;;;;;;;;;;;;;24.36;47.49;100920.69;7403247;19;1732;-38
2022/08/04 00:38:48;;;;;;;;;;;;;;;24.41;47.34;100929.13;7401198;19;2003;-38
2022/08/04 00:41:23;;;;;;;;;;;;;;;24.36;47.20;100936.91;7402246;19;1763;-38
2022/08/04 00:44:02;;;;;;;;;;;;;;;24.56;46.70;100930.19;7403723;19;1852;-38
2022/08/04 00:46:40;;;;;;;;;;;;;;;24.57;46.77;100929.19;7399716;19;1869;-38
2022/08/04 00:49:24;;;;;;;;;;;;;;;24.61;46.54;100930.53;7405641;19;1753;-38
2022/08/04 00:52:06;;;;;;;;;;;;;;;24.63;46.89;100937.63;7402801;19;1722;-39
2022/08/04 00:54:39;;;;;;;;;;;;;;;24.71;46.50;100948.44;7403267;19;1770;-38
2022/08/04 00:57:21;;;;;;;;;;;;;;;24.65;46.48;100933.75;7402584;19;1735;-38
2022/08/04 01:00:09;;;;;;;;;;;;;;;24.65;46.84;100941.00;7402581;19;1558;-38
2022/08/04 01:02:49;;;;;;;;;;;;;;;24.47;46.88;100933.00;7400941;19;1534;-38
2022/08/04 01:05:47;;;;;;;;;;;;;;;24.41;47.37;100932.69;7402269;19;1849;-38
2022/08/04 01:08:43;;;;;;;;;;;;;;;24.43;46.81;100937.91;7402789;19;1928;-38
2022/08/04 01:11:33;;;;;;;;;;;;;;;24.52;47.18;100936.94;7401981;19;1729;-38
2022/08/04 01:14:13;;;;;;;;;;;;;;;24.57;47.05;100949.94;7400435;19;1716;-38
2022/08/04 01:16:56;;;;;;;;;;;;;;;24.53;47.04;100954.00;7403484;19;1434;-39
2022/08/04 01:19:41;;;;;;;;;;;;;;;24.49;47.27;100944.50;7401905;19;1581;-38
2022/08/04 01:22:39;;;;;;;;;;;;;;;24.46;47.24;100936.75;7402000;19;1715;-38
2022/08/04 01:25:26;;;;;;;;;;;;;;;24.45;47.42;100943.97;7402333;19;2498;-38
2022/08/04 01:28:11;;;;;;;;;;;;;;;24.50;47.64;100943.50;7402168;19;1606;-38
2022/08/04 01:31:06;;;;;;;;;;;;;;;24.51;47.53;100946.06;7401543;19;1600;-39
2022/08/04 01:33:39;;;;;;;;;;;;;;;24.47;47.56;100947.41;7401137;19;1729;-38
2022/08/04 01:36:13;;;;;;;;;;;;;;;24.49;47.50;100947.19;7400701;19;1841;-38
2022/08/04 01:38:42;;;;;;;;;;;;;;;24.47;47.51;100938.41;7401406;19;2317;-38
2022/08/04 01:41:21;;;;;;;;;;;;;;;24.51;47.11;100921.75;7401484;19;1925;-39
2022/08/04 01:44:05;;;;;;;;;;;;;;;24.52;47.56;100934.22;7400985;19;1880;-39
2022/08/04 01:46:42;;;;;;;;;;;;;;;24.51;47.46;100940.66;7400409;19;1878;-38
2022/08/04 01:49:12;;;;;;;;;;;;;;;24.37;47.99;100943.97;7401316;19;1827;-38
2022/08/04 01:51:44;;;;;;;;;;;;;;;24.41;47.77;100942.63;7400435;19;1796;-38
2022/08/04 01:54:19;;;;;;;;;;;;;;;24.42;47.91;100930.81;7401329;19;1857;-39
2022/08/04 01:56:56;;;;;;;;;;;;;;;24.44;47.90;100934.19;7401061;19;1552;-39
2022/08/04 01:59:34;;;;;;;;;;;;;;;24.43;47.83;100937.91;7399759;19;1552;-39
2022/08/04 02:02:06;;;;;;;;;;;;;;;24.40;47.72;100922.88;7390598;19;3379;-55
2022/08/04 02:04:34;;;;;;;;;;;;;;;24.39;47.99;100932.00;7403359;19;1432;-56
2022/08/04 02:07:07;;;;;;;;;;;;;;;24.31;48.12;100915.78;7401327;19;1842;-55
2022/08/04 02:09:40;;;;;;;;;;;;;;;24.42;47.81;100926.25;7403321;19;1505;-55
2022/08/04 02:12:24;;;;;;;;;;;;;;;24.50;47.60;100936.25;7402954;19;1430;-56
2022/08/04 02:14:57;;;;;;;;;;;;;;;24.46;48.07;100940.28;7402990;19;1340;-56
2022/08/04 02:17:31;;;;;;;;;;;;;;;24.32;47.79;100920.16;7403165;19;1458;-56
2022/08/04 02:20:10;;;;;;;;;;;;;;;24.27;47.98;100921.66;7404217;19;1685;-56
2022/08/04 02:22:42;;;;;;;;;;;;;;;24.29;47.81;100920.50;7404206;19;1640;-55
2022/08/04 02:25:13;;;;;;;;;;;;;;;24.14;47.95;100925.72;7401969;19;1633;-56
2022/08/04 02:27:47;;;;;;;;;;;;;;;24.18;48.01;100920.81;7400570;19;1430;-55
2022/08/04 02:30:16;;;;;;;;;;;;;;;24.16;47.75;100917.44;7403024;19;1717;-55
2022/08/04 02:32:48;;;;;;;;;;;;;;;24.28;47.66;100923.38;7402887;19;1513;-55
2022/08/04 02:35:18;;;;;;;;;;;;;;;24.31;47.63;100925.72;7402797;19;1569;-56
2022/08/04 02:37:49;;;;;;;;;;;;;;;24.35;47.60;100924.38;7402496;19;1529;-56
2022/08/04 02:40:20;;;;;;;;;;;;;;;24.30;47.67;100926.75;7401933;19;1578;-56
2022/08/04 02:42:49;;;;;;;;;;;;;;;24.27;48.00;100902.75;7402817;19;1549;-56
2022/08/04 02:45:20;;;;;;;;;;;;;;;24.22;47.80;100919.47;7403371;19;1403;-55
2022/08/04 02:47:52;;;;;;;;;;;;;;;24.21;47.81;100924.03;7401813;19;1458;-55
2022/08/04 02:50:22;;;;;;;;;;;;;;;24.25;48.08;100918.28;7402296;19;1461;-56
2022/08/04 02:52:51;;;;;;;;;;;;;;;24.38;47.69;100918.66;7402051;19;1470;-56
2022/08/04 02:55:21;;;;;;;;;;;;;;;24.37;47.78;100916.94;7402792;19;1549;-56
2022/08/04 02:57:51;;;;;;;;;;;;;;;24.40;47.86;100916.63;7402160;19;1388;-56
2022/08/04 03:00:20;;;;;;;;;;;;;;;24.36;47.87;100916.09;7402721;19;1593;-56
2022/08/04 03:02:57;;;;;;;;;;;;;;;24.35;47.76;100913.56;7401928;19;1541;-64
2022/08/04 03:05:28;;;;;;;;;;;;;;;24.39;47.52;100925.72;7402461;19;1517;-56
2022/08/04 03:08:09;;;;;;;;;;;;;;;24.39;47.32;100920.31;7402245;19;1514;-56
2022/08/04 03:10:53;;;;;;;;;;;;;;;24.40;47.90;100914.75;7405574;19;1391;-65
2022/08/04 03:13:45;;;;;;;;;;;;;;;24.36;47.77;100920.69;7407154;19;1516;-64
2022/08/04 03:16:27;;;;;;;;;;;;;;;24.41;47.38;100915.59;7401108;19;1654;-64
2022/08/04 03:19:13;;;;;;;;;;;;;;;24.38;47.54;100927.59;7408820;19;1663;-56
2022/08/04 03:21:58;;;;;;;;;;;;;;;24.44;47.44;100925.25;7406597;19;1719;-55
2022/08/04 03:24:42;;;;;;;;;;;;;;;24.40;47.85;100916.63;7408868;19;1447;-64
2022/08/04 03:27:24;;;;;;;;;;;;;;;24.37;47.65;100927.75;7406701;19;1846;-64
2022/08/04 03:30:05;;;;;;;;;;;;;;;24.44;47.82;100928.78;7407533;19;1551;-64
2022/08/04 03:32:48;;;;;;;;;;;;;;;24.41;47.79;100929.97;7406828;19;1531;-55
2022/08/04 03:35:26;;;;;;;;;;;;;;;24.36;47.83;100939.59;7408226;19;1708;-64
2022/08/04 03:38:06;;;;;;;;;;;;;;;24.43;47.81;100932.50;7408282;19;1606;-64
2022/08/04 03:40:46;;;;;;;;;;;;;;;24.39;47.81;100944.66;7407711;19;1566;-54
2022/08/04 03:43:34;;;;;;;;;;;;;;;24.40;47.70;100933.69;7408370;19;1723;-64
2022/08/04 03:46:17;;;;;;;;;;;;;;;24.39;47.62;100923.03;7407860;19;1877;-64
2022/08/04 03:49:01;;;;;;;;;;;;;;;24.37;47.58;100916.94;7408917;19;1462;-64
2022/08/04 03:54:40;;;;;;;;;;;;;;;24.35;48.00;100935.19;7406544;19;1260;-65
2022/08/04 03:57:21;;;;;;;;;;;;;;;24.33;48.02;100926.41;7407390;19;1688;-64
2022/08/04 04:00:07;;;;;;;;;;;;;;;24.37;47.81;100935.88;7405632;19;1491;-56
2022/08/04 04:02:51;;;;;;;;;;;;;;;24.53;47.72;100941.34;7403855;19;1481;-60
2022/08/04 04:05:37;;;;;;;;;;;;;;;24.52;47.66;100952.31;7407373;19;1708;-55
2022/08/04 04:08:29;;;;;;;;;;;;;;;24.44;47.89;100947.72;7405369;19;2806;-60
2022/08/04 04:11:09;;;;;;;;;;;;;;;24.49;47.89;100942.66;7404534;19;1606;-63
2022/08/04 04:13:59;;;;;;;;;;;;;;;24.34;48.15;100936.22;7405954;19;1402;-56
2022/08/04 04:16:34;;;;;;;;;;;;;;;24.42;47.67;100936.22;7403910;19;1271;-56
2022/08/04 04:19:29;;;;;;;;;;;;;;;24.48;48.21;100951.78;7404943;19;1557;-66
2022/08/04 04:22:03;;;;;;;;;;;;;;;24.58;48.15;100944.38;7401594;19;1500;-63
2022/08/04 04:24:52;;;;;;;;;;;;;;;24.51;48.02;100946.06;7407054;19;1531;-63
2022/08/04 04:27:32;;;;;;;;;;;;;;;24.65;48.49;100955.38;7402592;19;1872;-65
2022/08/04 04:30:08;;;;;;;;;;;;;;;24.72;47.67;100960.94;7403838;19;1411;-55
2022/08/04 04:32:55;;;;;;;;;;;;;;;24.71;47.80;100964.66;7403960;19;1502;-55
2022/08/04 04:35:29;;;;;;;;;;;;;;;24.74;47.84;100961.63;7404272;19;1407;-64
2022/08/04 04:38:14;;;;;;;;;;;;;;;24.83;48.12;100973.28;7405097;19;1344;-60
2022/08/04 04:40:50;;;;;;;;;;;;;;;24.73;47.88;100957.22;7404537;19;1300;-55
2022/08/04 04:43:30;;;;;;;;;;;;;;;24.74;48.10;100951.66;7405231;19;1636;-64
2022/08/04 04:46:02;;;;;;;;;;;;;;;24.85;47.83;100953.19;7404554;19;1859;-62
2022/08/04 04:48:38;;;;;;;;;;;;;;;24.89;47.95;100954.53;7404743;19;1256;-65
2022/08/04 04:51:12;;;;;;;;;;;;;;;25.00;48.06;100956.88;7405329;19;1497;-63
2022/08/04 04:53:47;;;;;;;;;;;;;;;25.08;48.62;100961.44;7405480;19;1407;-62
2022/08/04 04:56:18;;;;;;;;;;;;;;;25.18;48.61;100963.97;7403810;19;1636;-62
2022/08/04 04:58:52;;;;;;;;;;;;;;;25.30;50.96;100950.94;7404355;19;1569;-56
2022/08/04 05:01:38;;;;;;;;;;;;;;;25.22;50.69;100954.50;7404981;19;1704;-60
2022/08/04 05:04:20;;;;;;;;;;;;;;;24.26;51.40;100944.31;7401730;19;1744;-60
2022/08/04 05:07:00;;;;;;;;;;;;;;;23.62;51.17;100971.75;7402759;19;1894;-54
2022/08/04 05:09:38;;;;;;;;;;;;;;;23.25;50.67;100955.84;7405609;19;1635;-63
2022/08/04 05:12:19;;;;;;;;;;;;;;;23.14;50.16;100955.09;7403666;19;1641;-54
2022/08/04 05:14:51;;;;;;;;;;;;;;;23.35;50.30;100959.28;7404407;19;1624;-53
2022/08/04 05:17:22;;;;;;;;;;;;;;;23.54;50.94;100963.63;7404317;19;1601;-55
2022/08/04 05:19:56;;;;;;;;;;;;;;;23.57;51.97;100960.56;7405710;19;1485;-53
2022/08/04 05:22:27;;;;;;;;;;;;;;;23.44;53.40;100944.84;7405290;19;1644;-61
2022/08/04 05:25:02;;;;;;;;;;;;;;;23.78;52.79;100952.94;7404740;19;1513;-55
2022/08/04 05:27:33;;;;;;;;;;;;;;;23.96;52.35;100952.84;7402834;19;1849;-55
2022/08/04 05:30:06;;;;;;;;;;;;;;;23.89;51.98;100953.66;7404035;19;1672;-53
2022/08/04 05:32:39;;;;;;;;;;;;;;;23.55;51.68;100949.09;7401793;19;1207;-58
2022/08/04 05:35:11;;;;;;;;;;;;;;;23.37;50.60;100963.50;7404415;19;1517;-54
2022/08/04 05:37:41;;;;;;;;;;;;;;;23.19;49.92;100960.03;7404332;19;1274;-54
2022/08/04 05:40:10;;;;;;;;;;;;;;;23.18;50.13;100952.94;7403287;19;1672;-60
2022/08/04 05:42:40;;;;;;;;;;;;;;;23.26;50.38;100960.22;7405566;19;1517;-60
2022/08/04 05:45:11;;;;;;;;;;;;;;;23.29;50.66;100976.94;7405879;19;1516;-60
2022/08/04 05:47:40;;;;;;;;;;;;;;;23.38;51.03;100965.22;7403846;19;1849;-61
2022/08/04 05:50:09;;;;;;;;;;;;;;;23.39;51.06;100942.59;7405274;19;1532;-60
2022/08/04 05:52:39;;;;;;;;;;;;;;;23.28;51.78;100958.22;7405139;19;1353;-52
2022/08/04 05:55:08;;;;;;;;;;;;;;;23.29;52.00;100957.22;7404914;19;1663;-61
2022/08/04 05:57:40;;;;;;;;;;;;;;;23.40;51.65;100963.19;7404125;19;1581;-60
2022/08/04 06:00:13;;;;;;;;;;;;;;;23.19;52.58;100968.94;7405153;19;1297;-59
2022/08/04 06:02:42;;;;;;;;;;;;;;;23.40;52.20;100951.56;7401468;19;1502;-53
2022/08/04 06:05:13;;;;;;;;;;;;;;;23.49;51.89;100966.78;7403050;19;1200;-60
2022/08/04 06:07:42;;;;;;;;;;;;;;;23.46;52.35;100977.03;7401630;19;1867;-60
2022/08/04 07:13:22;;;;;;;;;;;;;;;22.57;53.63;100943.84;6914195;19;10002311;-42
2022/08/04 07:15:51;;;;;;;;;;;;;;;22.53;52.84;100959.47;7429219;19;1818;-42
2022/08/04 07:18:19;;;;;;;;;;;;;;;22.61;52.49;100954.16;7425656;19;1722;-42
2022/08/04 07:20:48;;;;;;;;;;;;;;;22.56;53.77;100952.91;7426673;19;1892;-42
2022/08/04 07:23:20;;;;;;;;;;;;;;;22.60;53.65;100946.22;7428517;19;1887;-42
2022/08/04 07:25:52;;;;;;;;;;;;;;;22.62;54.04;100939.69;7426272;19;1874;-43
2022/08/04 07:28:25;;;;;;;;;;;;;;;22.71;53.96;100939.75;7426773;19;1544;-42
2022/08/04 07:30:54;;;;;;;;;;;;;;;22.56;54.47;100940.31;7430851;19;1514;-42
2022/08/04 07:33:23;;;;;;;;;;;;;;;22.63;54.19;100941.34;7427601;19;1429;-42
2022/08/04 07:35:53;;;;;;;;;;;;;;;22.58;54.84;100945.50;7428006;19;1709;-41
2022/08/04 07:38:21;;;;;;;;;;;;;;;22.54;54.80;100939.63;7426859;19;1486;-42
2022/08/04 07:40:50;;;;;;;;;;;;;;;22.57;54.81;100930.38;7427538;19;1858;-42
2022/08/04 07:43:18;;;;;;;;;;;;;;;22.53;54.87;100923.59;7428156;19;1478;-41
2022/08/04 07:45:49;;;;;;;;;;;;;;;22.47;55.27;100933.13;7429714;19;1418;-42
2022/08/04 07:48:21;;;;;;;;;;;;;;;22.64;55.06;100928.72;7430262;19;1726;-42
2022/08/04 07:50:54;;;;;;;;;;;;;;;22.74;55.32;100934.03;7429030;19;1830;-41
2022/08/04 07:53:37;;;;;;;;;;;;;;;22.68;56.04;100934.66;7426524;19;1567;-42
2022/08/04 07:56:09;;;;;;;;;;;;;;;23.63;53.75;100936.50;7426184;19;1742;-41
2022/08/04 07:58:38;;;;;;;;;;;;;;;24.24;52.54;100927.44;7428728;19;1579;-43
2022/08/04 08:01:13;;;;;;;;;;;;;;;24.48;52.74;100922.03;7429550;19;1865;-41
2022/08/04 08:03:44;;;;;;;;;;;;;;;24.72;52.11;100942.03;7427610;19;1569;-41
2022/08/04 08:06:30;;;;;;;;;;;;;;;24.76;52.24;100932.56;7431924;19;2172;-41
2022/08/04 08:11:45;;;;;;;;;;;;;;;24.86;53.33;100924.25;7429831;19;1587;-41
2022/08/04 08:14:17;;;;;;;;;;;;;;;24.89;53.58;100921.19;7402033;19;1515;-41
2022/08/04 08:17:01;;;;;;;;;;;;;;;24.89;53.78;100932.88;7403887;19;1667;-41
2022/08/04 08:19:30;;;;;;;;;;;;;;;23.96;56.66;100925.84;7404957;19;1632;-41
2022/08/04 08:22:02;;;;;;;;;;;;;;;23.20;55.58;100929.34;7403594;19;1861;-40
2022/08/04 08:24:33;;;;;;;;;;;;;;;22.71;55.46;100929.81;7403140;19;1772;-40
2022/08/04 08:27:08;;;;;;;;;;;;;;;22.74;54.09;100945.69;7405272;19;1881;-41
2022/08/04 08:29:37;;;;;;;;;;;;;;;22.78;53.61;100930.00;7407147;19;1752;-40
2022/08/04 08:32:12;;;;;;;;;;;;;;;22.72;53.16;100931.50;7404139;19;2004;-41
2022/08/04 08:34:40;;;;;;;;;;;;;;;22.81;53.03;100929.72;7403693;19;1452;-41
2022/08/04 08:37:16;;;;;;;;;;;;;;;22.74;53.57;100917.84;7404680;19;1557;-40
2022/08/04 08:39:54;;;;;;;;;;;;;;;22.81;54.32;100918.94;7404075;19;1351;-41
2022/08/04 08:42:39;;;;;;;;;;;;;;;22.90;54.27;100922.53;7403907;19;1853;-41
2022/08/04 08:45:27;;;;;;;;;;;;;;;22.87;54.47;100926.38;7406027;19;1502;-41
2022/08/04 08:48:09;;;;;;;;;;;;;;;22.80;54.53;100917.22;7404347;19;1445;-41
2022/08/04 08:51:14;;;;;;;;;;;;;;;22.76;54.77;100908.63;7404340;19;1431;-40
2022/08/04 08:54:03;;;;;;;;;;;;;;;22.82;54.89;100921.47;7405221;19;1493;-41
2022/08/04 08:56:44;;;;;;;;;;;;;;;22.83;55.39;100925.00;7400515;19;1504;-41
2022/08/04 08:59:38;;;;;;;;;;;;;;;22.86;55.29;100915.75;7399943;19;1980;-41
2022/08/04 09:02:25;;;;;;;;;;;;;;;22.98;55.28;100911.81;7398562;19;1898;-41
2022/08/04 09:05:14;;;;;;;;;;;;;;;22.78;55.71;100908.44;7399353;19;1979;-41
2022/08/04 09:08:02;;;;;;;;;;;;;;;22.77;55.77;100907.59;7403747;19;1670;-41
2022/08/04 09:10:52;;;;;;;;;;;;;;;22.81;55.71;100913.53;7403028;19;1640;-40
2022/08/04 09:13:25;;;;;;;;;;;;;;;22.82;55.81;100904.47;7403394;19;2044;-41
2022/08/04 09:16:02;;;;;;;;;;;;;;;22.79;55.83;100910.16;7406123;19;1245;-40
2022/08/04 09:18:35;;;;;;;;;;;;;;;22.79;56.07;100915.53;7404048;19;1690;-41
2022/08/04 09:21:07;;;;;;;;;;;;;;;22.77;56.09;100891.44;7403222;19;1938;-41
2022/08/04 09:23:48;;;;;;;;;;;;;;;22.72;56.04;100904.56;7403546;19;1634;-41
2022/08/04 09:26:20;;;;;;;;;;;;;;;22.82;55.93;100893.69;7400197;19;1680;-42
2022/08/04 09:28:52;;;;;;;;;;;;;;;22.65;56.54;100898.09;7401303;19;1690;-41
2022/08/04 09:31:22;;;;;;;;;;;;;;;22.66;56.57;100904.31;7402688;19;1533;-41
2022/08/04 09:33:58;;;;;;;;;;;;;;;22.73;56.22;100897.31;7402112;19;1837;-44
2022/08/04 09:36:31;;;;;;;;;;;;;;;23.35;54.68;100898.06;7401560;19;1634;-41
2022/08/04 09:39:08;;;;;;;;;;;;;;;23.96;53.25;100885.31;7403307;19;1476;-41
2022/08/04 09:41:39;;;;;;;;;;;;;;;24.38;52.98;100897.03;7401204;19;1868;-41
2022/08/04 09:44:15;;;;;;;;;;;;;;;24.43;52.55;100878.44;7401162;19;1820;-42
2022/08/04 09:46:47;;;;;;;;;;;;;;;24.54;52.48;100886.25;7402353;19;1648;-41
2022/08/04 09:49:19;;;;;;;;;;;;;;;24.60;52.42;100882.03;7403002;19;1502;-41
2022/08/04 09:51:58;;;;;;;;;;;;;;;24.64;52.07;100882.53;7401322;19;1655;-41
2022/08/04 09:54:33;;;;;;;;;;;;;;;24.70;52.17;100874.56;7399141;19;1897;-42
2022/08/04 09:57:06;;;;;;;;;;;;;;;24.71;52.40;100881.69;7401398;19;1697;-40
2022/08/04 09:59:41;;;;;;;;;;;;;;;24.77;52.13;100880.13;7400278;19;1556;-41
2022/08/04 10:02:11;;;;;;;;;;;;;;;24.76;52.35;100868.47;7397767;19;1977;-41
2022/08/04 10:04:41;;;;;;;;;;;;;;;24.82;52.88;100896.72;7400359;19;2172;-41
2022/08/04 10:07:27;;;;;;;;;;;;;;;24.84;52.87;100866.78;7399396;19;1600;-40
2022/08/04 10:10:03;;;;;;;;;;;;;;;24.89;53.22;100886.03;7402916;19;1860;-40
2022/08/04 10:12:40;;;;;;;;;;;;;;;24.89;53.94;100889.59;7400145;19;1930;-41
2022/08/04 10:15:12;;;;;;;;;;;;;;;24.87;54.85;100870.00;7403066;19;1900;-42
2022/08/04 10:17:46;;;;;;;;;;;;;;;24.90;54.16;100864.22;7397658;19;1426;-42
2022/08/04 10:20:20;;;;;;;;;;;;;;;24.95;53.80;100872.69;7400914;19;1690;-42
2022/08/04 10:22:54;;;;;;;;;;;;;;;24.99;53.50;100868.63;7400091;19;1857;-42
2022/08/04 10:25:32;;;;;;;;;;;;;;;24.97;54.34;100886.88;7401634;19;1732;-41
2022/08/04 10:28:06;;;;;;;;;;;;;;;25.07;53.73;100885.81;7397960;19;1837;-42
2022/08/04 10:30:38;;;;;;;;;;;;;;;25.12;53.74;100873.47;7401321;19;1517;-42
2022/08/04 10:33:12;;;;;;;;;;;;;;;25.06;54.01;100862.50;7400530;19;1432;-42
2022/08/04 10:35:45;;;;;;;;;;;;;;;25.11;53.67;100869.09;7399051;19;1370;-41
2022/08/04 10:38:18;;;;;;;;;;;;;;;25.14;53.76;100862.47;7398350;19;1514;-40
2022/08/04 10:40:53;;;;;;;;;;;;;;;25.16;53.96;100868.56;7398767;19;1995;-41
2022/08/04 10:43:27;;;;;;;;;;;;;;;25.14;54.25;100859.78;7397220;19;1864;-41
2022/08/04 10:45:57;;;;;;;;;;;;;;;25.22;54.58;100876.00;7401121;19;1536;-40
2022/08/04 10:48:32;;;;;;;;;;;;;;;25.19;54.28;100858.25;7398753;19;1886;-40
2022/08/04 10:51:11;;;;;;;;;;;;;;;25.22;55.12;100872.47;7399981;19;1643;-43
2022/08/04 10:53:40;;;;;;;;;;;;;;;25.22;54.51;100867.91;7395436;19;1427;-40
2022/08/04 10:56:15;;;;;;;;;;;;;;;25.27;54.49;100862.81;7397563;19;1856;-40
2022/08/04 10:58:47;;;;;;;;;;;;;;;25.27;55.16;100862.81;7397350;19;1530;-40
2022/08/04 11:01:19;;;;;;;;;;;;;;;25.28;55.80;100855.53;7398400;19;1979;-40
2022/08/04 11:03:51;;;;;;;;;;;;;;;25.22;56.13;100850.81;7397523;19;1853;-42
2022/08/04 11:06:21;;;;;;;;;;;;;;;25.31;56.31;100833.53;7400591;19;1672;-40
2022/08/04 11:08:51;;;;;;;;;;;;;;;25.31;56.15;100849.78;7399779;19;2009;-41
2022/08/04 11:11:26;;;;;;;;;;;;;;;25.31;56.16;100838.97;7399101;19;1805;-41
2022/08/04 11:13:59;;;;;;;;;;;;;;;25.33;56.01;100850.44;7398873;19;1796;-41
2022/08/04 11:16:29;;;;;;;;;;;;;;;25.31;55.99;100847.06;7399024;19;1929;-41
2022/08/04 11:19:03;;;;;;;;;;;;;;;25.36;56.42;100848.22;7399594;19;1596;-41
2022/08/04 11:21:34;;;;;;;;;;;;;;;25.34;56.04;100849.41;7399952;19;1797;-41
2022/08/04 11:24:04;;;;;;;;;;;;;;;25.33;56.42;100837.75;7398460;19;1861;-41
2022/08/04 11:26:40;;;;;;;;;;;;;;;25.35;55.95;100837.59;7399977;19;1785;-40
2022/08/04 11:29:13;;;;;;;;;;;;;;;25.34;56.09;100830.47;7397028;19;1756;-40
2022/08/04 11:31:43;;;;;;;;;;;;;;;25.39;56.22;100831.63;7396713;19;1619;-40
2022/08/04 11:34:16;;;;;;;;;;;;;;;25.38;56.46;100829.94;7400175;19;1687;-40
2022/08/04 11:36:48;;;;;;;;;;;;;;;25.40;56.37;100827.88;7398478;19;1704;-40
2022/08/04 11:39:24;;;;;;;;;;;;;;;25.41;56.10;100823.34;7399257;19;1652;-40
2022/08/04 11:41:59;;;;;;;;;;;;;;;25.42;55.85;100816.88;7399657;19;1611;-41
2022/08/04 11:44:30;;;;;;;;;;;;;;;25.44;56.23;100822.97;7397682;19;1702;-40
2022/08/04 11:47:01;;;;;;;;;;;;;;;25.45;56.14;100823.84;7397592;19;1441;-40
2022/08/04 11:49:32;;;;;;;;;;;;;;;25.44;56.22;100812.13;7403354;19;1820;-40
2022/08/04 11:52:02;;;;;;;;;;;;;;;25.46;56.39;100806.56;7404042;19;1794;-41
2022/08/04 11:54:32;;;;;;;;;;;;;;;25.49;56.41;100819.75;7405163;19;1472;-40
2022/08/04 11:57:04;;;;;;;;;;;;;;;25.44;56.17;100811.31;7404543;19;1713;-41
2022/08/04 11:59:35;;;;;;;;;;;;;;;25.26;58.36;100816.97;7402279;19;1603;-40
2022/08/04 12:02:19;;;;;;;;;;;;;;;24.38;59.39;100808.69;7405020;19;1872;-40
2022/08/04 12:04:51;;;;;;;;;;;;;;;23.58;58.28;100811.13;7405276;19;1438;-41
2022/08/04 12:07:22;;;;;;;;;;;;;;;23.23;57.66;100810.31;7405309;19;1611;-40
2022/08/04 12:09:57;;;;;;;;;;;;;;;23.22;56.60;100797.84;7404887;19;1657;-40
2022/08/04 12:12:34;;;;;;;;;;;;;;;23.73;55.67;100774.34;7404449;19;1725;-40
2022/08/04 12:15:06;;;;;;;;;;;;;;;23.63;56.01;100784.44;7406822;19;1365;-39
2022/08/04 12:17:39;;;;;;;;;;;;;;;23.52;57.32;100796.41;7405578;19;1610;-39
2022/08/04 12:20:12;;;;;;;;;;;;;;;23.47;58.44;100806.00;7403507;19;1987;-40
2022/08/04 12:22:43;;;;;;;;;;;;;;;23.50;58.83;100797.59;7404344;19;1850;-39
2022/08/04 12:25:13;;;;;;;;;;;;;;;23.47;59.29;100800.59;7405096;19;1782;-40
2022/08/04 12:27:48;;;;;;;;;;;;;;;23.45;59.72;100808.88;7403615;19;1623;-40
2022/08/04 12:30:18;;;;;;;;;;;;;;;23.47;59.36;100789.81;7404963;19;1588;-40
2022/08/04 12:32:52;;;;;;;;;;;;;;;23.43;59.70;100790.13;7404196;19;1690;-40
2022/08/04 12:35:22;;;;;;;;;;;;;;;23.40;60.20;100795.88;7408515;19;1921;-40
2022/08/04 12:37:55;;;;;;;;;;;;;;;23.36;59.90;100785.59;7406061;19;1693;-40
2022/08/04 12:40:27;;;;;;;;;;;;;;;23.32;60.17;100787.75;7405469;19;1572;-40
2022/08/04 12:42:59;;;;;;;;;;;;;;;24.17;58.03;100781.31;7401939;19;1928;-41
2022/08/04 12:45:28;;;;;;;;;;;;;;;24.65;56.85;100773.34;7406261;19;1941;-40
2022/08/04 12:47:59;;;;;;;;;;;;;;;24.83;56.18;100771.28;7403334;19;1604;-40
2022/08/04 12:50:27;;;;;;;;;;;;;;;24.97;56.27;100778.66;7403826;19;1737;-41
2022/08/04 12:52:57;;;;;;;;;;;;;;;24.97;56.13;100765.16;7405461;19;1598;-41
2022/08/04 12:55:28;;;;;;;;;;;;;;;25.06;55.88;100765.94;7404823;19;1829;-40
2022/08/04 12:58:00;;;;;;;;;;;;;;;25.07;55.87;100750.53;7403083;19;1821;-41
2022/08/04 13:00:30;;;;;;;;;;;;;;;25.11;55.99;100752.75;7405376;19;1689;-41
2022/08/04 13:03:02;;;;;;;;;;;;;;;25.10;55.97;100755.63;7399741;19;1861;-40
2022/08/04 13:05:31;;;;;;;;;;;;;;;25.13;55.92;100760.69;7403859;19;1834;-41
2022/08/04 13:08:00;;;;;;;;;;;;;;;25.20;55.53;100772.47;7403370;19;1831;-41
2022/08/04 13:10:31;;;;;;;;;;;;;;;25.18;56.02;100755.56;7403698;19;1834;-41
2022/08/04 13:13:02;;;;;;;;;;;;;;;25.22;56.14;100759.63;7401650;19;1812;-40
2022/08/04 13:15:32;;;;;;;;;;;;;;;25.28;56.32;100753.50;7401877;19;1853;-40
2022/08/04 13:18:01;;;;;;;;;;;;;;;25.34;56.25;100751.97;7402621;19;1466;-40
2022/08/04 13:20:31;;;;;;;;;;;;;;;25.35;56.39;100757.22;7404458;19;1632;-40
2022/08/04 13:23:01;;;;;;;;;;;;;;;25.35;56.12;100753.66;7402933;19;2339;-40
2022/08/04 13:25:31;;;;;;;;;;;;;;;25.36;55.93;100749.94;7403411;19;1678;-40
2022/08/04 13:28:03;;;;;;;;;;;;;;;25.35;56.35;100746.38;7404018;19;1600;-40
2022/08/04 13:30:33;;;;;;;;;;;;;;;25.38;56.27;100748.72;7404760;19;1311;-40
2022/08/04 13:33:02;;;;;;;;;;;;;;;25.37;56.39;100757.88;7402981;19;1961;-40
2022/08/04 13:35:31;;;;;;;;;;;;;;;25.42;56.08;100745.66;7402700;19;1827;-40
2022/08/04 13:38:00;;;;;;;;;;;;;;;25.47;56.33;100757.66;7403190;19;1356;-39
2022/08/04 13:40:28;;;;;;;;;;;;;;;25.45;56.23;100743.44;7401817;19;1520;-40
2022/08/04 13:42:58;;;;;;;;;;;;;;;25.50;56.99;100746.44;7401822;19;1852;-39
2022/08/04 13:45:29;;;;;;;;;;;;;;;25.51;56.73;100747.31;7402898;19;1248;-39
2022/08/04 13:48:00;;;;;;;;;;;;;;;25.51;56.81;100739.19;7402845;19;1417;-40
2022/08/04 13:50:30;;;;;;;;;;;;;;;25.53;56.91;100739.84;7402889;19;1578;-39
2022/08/04 13:52:59;;;;;;;;;;;;;;;25.57;56.94;100731.19;7402307;19;1587;-39
2022/08/04 13:55:30;;;;;;;;;;;;;;;25.56;57.15;100729.47;7401838;19;1452;-39
2022/08/04 13:58:01;;;;;;;;;;;;;;;25.61;57.54;100723.53;7402722;19;1340;-39
2022/08/04 14:00:40;;;;;;;;;;;;;;;25.62;57.43;100730.63;7401725;19;1857;-39
2022/08/04 14:03:09;;;;;;;;;;;;;;;25.63;57.75;100726.91;7399137;19;1853;-39
2022/08/04 14:05:37;;;;;;;;;;;;;;;25.62;57.89;100727.91;7401779;19;1412;-40
2022/08/04 14:08:08;;;;;;;;;;;;;;;25.59;57.88;100717.47;7402248;19;1583;-40
2022/08/04 14:10:37;;;;;;;;;;;;;;;25.65;57.39;100727.56;7401069;19;1605;-40
2022/08/04 14:13:07;;;;;;;;;;;;;;;25.63;57.63;100713.38;7397475;19;1771;-39
2022/08/04 14:15:40;;;;;;;;;;;;;;;25.68;57.54;100716.38;7399361;19;1704;-39
2022/08/04 14:18:19;;;;;;;;;;;;;;;25.69;57.54;100712.66;7400870;19;1660;-40
2022/08/04 14:21:00;;;;;;;;;;;;;;;25.71;57.47;100723.31;7402087;19;1627;-40
2022/08/04 14:23:29;;;;;;;;;;;;;;;25.69;57.62;100706.41;7398867;19;1857;-40
2022/08/04 14:25:57;;;;;;;;;;;;;;;25.71;58.24;100721.44;6878511;19;9999989;-40
2022/08/04 14:28:29;;;;;;;;;;;;;;;25.68;57.96;100710.94;7393677;19;1637;-39
2022/08/04 14:31:13;;;;;;;;;;;;;;;25.67;58.16;100692.19;7393209;19;1501;-41
2022/08/04 14:33:42;;;;;;;;;;;;;;;25.60;58.47;100713.72;7397837;19;1523;-39